Time;durP1;ratioP1;P1;durP2;ratioP2;P2;SDS_P1;SDS_P2;PMS_P1;PMS_P2;Temp;Humidity;BMP_temperature;BMP_pressure;BME280_temperature;BME280_humidity;BME280_pressure;Samples;Min_cycle;Max_cycle;Signal;HPM_P1;HPM_P2
2021/01/22 00:01:42;;;;;;;24.63;20.25;;;;;;;9.35;55.35;93929.16;1761470;81;21069;-49
2021/01/22 00:04:11;;;;;;;7.37;6.65;;;;;;;9.38;55.29;93920.79;1761390;81;21212;-48
2021/01/22 00:06:40;;;;;;;4.90;4.33;;;;;;;9.43;55.23;93918.05;1759654;81;21342;-49
2021/01/22 00:09:08;;;;;;;6.53;4.87;;;;;;;9.45;55.12;93926.58;1759824;81;21124;-49
2021/01/22 00:11:37;;;;;;;5.55;4.08;;;;;;;9.45;55.20;93922.46;1759810;81;21460;-49
2021/01/22 00:14:05;;;;;;;3.80;3.50;;;;;;;9.42;55.03;93918.64;1759960;81;21529;-48
2021/01/22 00:16:34;;;;;;;5.28;4.30;;;;;;;9.43;55.03;93905.69;1759886;81;21073;-50
2021/01/22 00:19:03;;;;;;;6.15;4.05;;;;;;;9.45;55.08;93899.88;1759835;81;21211;-49
2021/01/22 00:21:31;;;;;;;3.98;3.42;;;;;;;9.44;55.07;93905.22;1759809;81;21133;-49
2021/01/22 00:24:00;;;;;;;5.25;4.42;;;;;;;9.44;54.80;93912.70;1759687;81;21176;-50
2021/01/22 00:26:29;;;;;;;6.15;5.55;;;;;;;9.47;54.85;93902.17;1759896;81;21600;-49
2021/01/22 00:28:57;;;;;;;5.05;4.33;;;;;;;9.48;54.75;93900.35;1759880;81;21164;-50
2021/01/22 00:31:26;;;;;;;4.78;3.75;;;;;;;9.47;54.77;93884.33;1759901;81;21797;-49
2021/01/22 00:33:54;;;;;;;7.78;4.00;;;;;;;9.45;54.40;93890.89;1759813;81;21107;-49
2021/01/22 00:36:22;;;;;;;5.37;4.70;;;;;;;9.49;54.26;93891.48;1759860;81;21073;-50
2021/01/22 00:38:52;;;;;;;6.35;4.97;;;;;;;9.54;54.38;93897.13;1759820;81;21105;-50
2021/01/22 00:41:20;;;;;;;5.95;4.42;;;;;;;9.55;54.44;93892.38;1759894;81;21120;-50
2021/01/22 00:43:49;;;;;;;5.95;4.25;;;;;;;9.55;54.47;93901.99;1759974;81;21398;-50
2021/01/22 00:46:17;;;;;;;6.58;3.95;;;;;;;9.54;54.34;93878.51;1759923;81;21100;-48
2021/01/22 00:48:45;;;;;;;5.25;4.75;;;;;;;9.53;54.25;93885.22;1759952;81;21077;-49
2021/01/22 00:51:14;;;;;;;4.92;4.10;;;;;;;9.51;54.35;93889.05;1760054;81;21493;-49
2021/01/22 00:53:42;;;;;;;4.60;4.20;;;;;;;9.49;54.28;93890.89;1760027;81;21076;-49
2021/01/22 00:56:11;;;;;;;5.80;3.77;;;;;;;9.50;54.16;93893.01;1760007;81;21270;-49
2021/01/22 00:58:41;;;;;;;5.53;3.55;;;;;;;9.53;54.11;93898.95;1759309;81;21184;-50
2021/01/22 01:01:29;;;;;;;4.60;3.85;;;;;;;9.58;54.11;93888.73;1759832;81;21146;-50
2021/01/22 01:04:00;;;;;;;4.70;3.95;;;;;;;9.55;54.03;93875.31;1760047;81;21161;-48
2021/01/22 01:06:31;;;;;;;3.98;3.62;;;;;;;9.57;54.17;93883.07;1783660;80;21143;-49
2021/01/22 01:09:00;;;;;;;5.50;3.92;;;;;;;9.56;53.72;93871.94;1766841;80;21211;-49
2021/01/22 01:11:40;;;;;;;4.90;3.95;;;;;;;9.57;53.95;93888.56;1790132;80;21166;-50
2021/01/22 01:14:18;;;;;;;11.57;5.53;;;;;;;9.57;54.07;93883.07;1890059;75;22724;-51
2021/01/22 01:16:50;;;;;;;6.78;4.37;;;;;;;9.52;54.16;93889.19;1860920;77;21525;-49
2021/01/22 01:19:18;;;;;;;5.83;3.77;;;;;;;9.52;53.98;93913.30;1860929;77;21356;-49
2021/01/22 01:21:47;;;;;;;4.90;4.40;;;;;;;9.60;53.79;93910.37;1860896;77;21073;-49
2021/01/22 01:24:15;;;;;;;7.85;4.60;;;;;;;9.63;53.83;93903.22;1860941;77;21041;-48
2021/01/22 01:26:44;;;;;;;5.87;4.60;;;;;;;9.64;53.83;93896.50;1860921;77;21140;-50
2021/01/22 01:29:13;;;;;;;4.53;4.03;;;;;;;9.64;53.87;93910.23;1859323;77;21136;-50
2021/01/22 01:31:41;;;;;;;6.60;4.03;;;;;;;9.67;53.86;93889.48;1827294;78;22311;-52
2021/01/22 01:34:10;;;;;;;5.47;3.72;;;;;;;9.71;53.67;93909.89;1827121;78;21155;-49
2021/01/22 01:36:39;;;;;;;3.92;3.52;;;;;;;9.75;53.47;93894.01;1827204;78;21068;-49
2021/01/22 01:39:07;;;;;;;8.35;5.37;;;;;;;9.76;53.48;93889.44;1827150;78;21065;-50
2021/01/22 01:41:36;;;;;;;8.13;4.78;;;;;;;9.76;53.66;93891.44;1827150;78;21088;-49
2021/01/22 01:44:06;;;;;;;5.17;3.85;;;;;;;9.70;53.70;93879.54;1827292;78;22159;-49
2021/01/22 01:46:35;;;;;;;5.65;3.90;;;;;;;9.69;53.84;93882.91;1827148;78;21087;-51
2021/01/22 01:49:04;;;;;;;4.47;4.08;;;;;;;9.68;53.87;93879.24;1827150;78;21132;-49
2021/01/22 01:51:32;;;;;;;4.95;3.92;;;;;;;9.62;54.05;93876.35;1827138;78;21126;-50
2021/01/22 01:54:01;;;;;;;10.93;4.22;;;;;;;9.60;54.21;93883.55;1827160;78;21134;-50
2021/01/22 01:56:29;;;;;;;7.60;4.00;;;;;;;9.61;54.22;93864.47;1827265;78;22110;-50
2021/01/22 01:58:58;;;;;;;6.92;4.45;;;;;;;9.61;54.17;93857.61;1827096;78;21072;-49
2021/01/22 02:01:26;;;;;;;7.47;6.62;;;;;;;9.62;54.17;93868.11;1827149;78;21051;-48
2021/01/22 02:03:56;;;;;;;7.53;6.75;;;;;;;9.62;54.08;93872.23;1827152;78;21127;-49
2021/01/22 02:06:24;;;;;;;6.08;5.35;;;;;;;9.62;54.14;93866.73;1827138;78;21127;-49
2021/01/22 02:08:53;;;;;;;5.87;5.28;;;;;;;9.61;53.91;93865.84;1827215;78;22289;-49
2021/01/22 02:11:22;;;;;;;6.60;5.08;;;;;;;9.62;53.83;93876.98;1827057;78;21122;-48
2021/01/22 02:13:51;;;;;;;7.62;6.65;;;;;;;9.63;53.92;93875.75;1826901;78;21126;-50
2021/01/22 02:16:19;;;;;;;8.93;5.17;;;;;;;9.61;54.06;93875.45;1827248;78;21468;-50
2021/01/22 02:18:47;;;;;;;12.63;6.72;;;;;;;9.60;54.01;93864.33;1827122;78;21090;-50
2021/01/22 02:21:34;;;;;;;10.32;6.53;;;;;;;9.59;54.14;93870.41;1827139;78;21203;-50
2021/01/22 02:24:15;;;;;;;8.23;4.25;;;;;;;9.54;54.17;93872.42;1826905;78;21115;-49
2021/01/22 02:27:06;;;;;;;10.28;4.65;;;;;;;9.51;53.91;93872.57;1826580;78;21115;-49
2021/01/22 02:29:35;;;;;;;8.30;5.92;;;;;;;9.50;53.86;93870.45;1826529;78;21158;-50
2021/01/22 02:32:06;;;;;;;11.03;6.60;;;;;;;9.53;53.71;93876.98;1826552;78;21141;-50
2021/01/22 02:34:37;;;;;;;13.72;9.23;;;;;;;9.56;53.65;93870.56;1826564;78;21431;-49
2021/01/22 02:37:07;;;;;;;10.28;6.62;;;;;;;9.54;53.67;93876.53;1826505;78;21074;-49
2021/01/22 02:39:38;;;;;;;11.48;7.90;;;;;;;9.55;53.70;93866.30;1826516;78;21080;-50
2021/01/22 02:42:08;;;;;;;7.00;5.03;;;;;;;9.53;53.34;93879.73;1826588;78;21072;-49
2021/01/22 02:44:36;;;;;;;5.70;4.70;;;;;;;9.57;53.12;93870.72;1826570;78;21063;-49
2021/01/22 02:47:08;;;;;;;6.28;4.78;;;;;;;9.62;53.12;93868.74;1826646;78;22181;-51
2021/01/22 02:49:37;;;;;;;6.25;4.80;;;;;;;9.63;53.19;93862.03;1826577;78;21670;-49
2021/01/22 02:52:06;;;;;;;17.45;13.28;;;;;;;9.65;53.25;93867.81;1826458;78;21496;-49
2021/01/22 02:54:34;;;;;;;5.05;4.50;;;;;;;9.63;53.15;93886.73;1826636;78;21063;-50
2021/01/22 02:57:11;;;;;;;9.95;5.55;;;;;;;9.65;52.56;93882.91;1826577;78;21103;-50
2021/01/22 03:00:23;;;;;;;4.85;4.22;;;;;;;9.64;52.60;93878.65;1826562;78;21383;-50
2021/01/22 03:03:12;;;;;;;6.65;5.42;;;;;;;9.64;52.44;93873.16;1826492;78;21094;-50
2021/01/22 03:05:42;;;;;;;8.43;6.95;;;;;;;9.65;52.48;93864.44;1826512;78;21130;-50
2021/01/22 03:08:15;;;;;;;6.15;5.20;;;;;;;9.67;52.40;93849.66;1826524;78;21162;-49
2021/01/22 03:10:43;;;;;;;7.58;5.50;;;;;;;9.67;52.26;93855.75;1826779;78;21103;-49
2021/01/22 03:13:12;;;;;;;12.53;10.45;;;;;;;9.68;52.45;93858.64;1816965;78;21357;-50
2021/01/22 03:15:40;;;;;;;10.40;7.97;;;;;;;9.66;52.80;93863.84;1793411;80;21141;-50
2021/01/22 03:18:20;;;;;;;8.60;6.65;;;;;;;9.63;52.86;93868.27;1793552;80;21074;-50
2021/01/22 03:20:49;;;;;;;8.40;5.62;;;;;;;9.60;53.00;93856.09;1793482;80;21059;-49
2021/01/22 03:23:18;;;;;;;10.43;9.33;;;;;;;9.56;53.23;93866.45;1793441;80;21062;-48
2021/01/22 03:25:48;;;;;;;17.52;14.30;;;;;;;9.49;53.41;93869.52;1793472;78;21259;-49
2021/01/22 03:28:17;;;;;;;28.52;24.02;;;;;;;9.46;53.39;93874.57;1793408;80;21083;-49
2021/01/22 03:30:45;;;;;;;17.55;15.23;;;;;;;9.46;53.56;93874.57;1793409;80;21055;-49
2021/01/22 03:33:14;;;;;;;30.00;16.95;;;;;;;9.46;53.52;93873.20;1793414;80;21117;-49
2021/01/22 03:35:45;;;;;;;17.42;12.88;;;;;;;9.47;53.38;93879.58;1793422;80;21122;-49
2021/01/22 03:38:13;;;;;;;6.95;4.90;;;;;;;9.50;53.13;93882.80;1793466;80;21374;-49
2021/01/22 03:40:42;;;;;;;7.40;4.20;;;;;;;9.54;52.99;93875.77;1793382;80;21134;-49
2021/01/22 03:43:10;;;;;;;8.08;5.28;;;;;;;9.59;52.94;93865.55;1793459;80;21023;-49
2021/01/22 03:45:40;;;;;;;9.83;5.35;;;;;;;9.66;52.75;93872.08;1793519;80;21054;-48
2021/01/22 03:48:10;;;;;;;9.75;7.15;;;;;;;9.72;52.78;93870.22;1793408;80;21039;-50
2021/01/22 03:50:39;;;;;;;12.58;9.10;;;;;;;9.75;52.68;93870.07;1793485;80;21194;-50
2021/01/22 03:53:09;;;;;;;9.28;7.75;;;;;;;9.72;52.65;93878.46;1793356;78;21081;-49
2021/01/22 03:55:39;;;;;;;16.70;13.72;;;;;;;9.74;52.79;93865.80;1790349;80;21058;-50
2021/01/22 03:58:08;;;;;;;12.47;9.53;;;;;;;9.76;52.83;93878.45;1793541;80;21472;-49
2021/01/22 04:00:37;;;;;;;6.45;5.30;;;;;;;9.79;52.79;93869.91;1793469;80;21063;-49
2021/01/22 04:03:06;;;;;;;7.87;6.85;;;;;;;9.79;52.79;93863.05;1793393;80;21328;-49
2021/01/22 04:05:34;;;;;;;5.40;4.83;;;;;;;9.75;52.91;93870.66;1793401;80;21133;-49
2021/01/22 04:08:04;;;;;;;8.70;5.37;;;;;;;9.73;53.01;93869.77;1793418;80;21130;-49
2021/01/22 04:10:32;;;;;;;9.23;4.28;;;;;;;9.72;53.00;93859.23;1793449;80;21134;-49
2021/01/22 04:13:01;;;;;;;6.10;4.75;;;;;;;9.68;53.06;93869.62;1793261;78;21114;-50
2021/01/22 04:15:30;;;;;;;8.95;5.10;;;;;;;9.68;53.10;93869.62;1793405;80;21157;-49
2021/01/22 04:17:59;;;;;;;6.25;4.90;;;;;;;9.70;53.04;93877.56;1793474;80;21507;-48
2021/01/22 04:20:27;;;;;;;7.22;5.05;;;;;;;9.74;52.93;93880.91;1793506;80;21071;-50
2021/01/22 04:22:56;;;;;;;7.58;4.60;;;;;;;9.77;52.93;93878.61;1793406;78;21062;-49
2021/01/22 04:25:25;;;;;;;6.08;4.95;;;;;;;9.77;52.91;93867.62;1793441;80;21095;-49
2021/01/22 04:27:53;;;;;;;9.40;5.45;;;;;;;9.77;52.94;93866.24;1793391;78;21206;-49
2021/01/22 04:30:22;;;;;;;10.63;7.70;;;;;;;9.79;52.89;93875.41;1793450;80;21507;-49
2021/01/22 04:32:50;;;;;;;12.75;7.00;;;;;;;9.80;52.87;93865.94;1793468;80;21582;-50
2021/01/22 04:35:19;;;;;;;6.50;4.97;;;;;;;9.80;52.88;93879.05;1793428;80;21074;-49
2021/01/22 04:37:48;;;;;;;9.45;6.70;;;;;;;9.80;52.88;93880.42;1793432;80;21066;-49
2021/01/22 04:40:16;;;;;;;6.58;5.53;;;;;;;9.75;52.99;93881.05;1793365;80;21164;-50
2021/01/22 04:42:45;;;;;;;6.87;6.03;;;;;;;9.72;53.06;93879.83;1793382;80;21546;-49
2021/01/22 04:45:14;;;;;;;6.03;4.60;;;;;;;9.69;53.13;93874.67;1793396;80;21142;-50
2021/01/22 04:47:42;;;;;;;6.47;4.40;;;;;;;9.68;53.11;93879.24;1793431;80;21568;-49
2021/01/22 04:50:17;;;;;;;8.18;4.45;;;;;;;9.69;53.14;93876.64;1793279;80;21201;-49
2021/01/22 04:52:46;;;;;;;4.92;4.17;;;;;;;9.71;53.04;93878.31;1793459;80;21257;-50
2021/01/22 04:55:15;;;;;;;6.10;5.50;;;;;;;9.69;53.09;93876.05;1793394;80;21567;-50
2021/01/22 04:57:47;;;;;;;5.62;4.83;;;;;;;9.65;53.13;93883.66;1793417;80;21122;-50
2021/01/22 05:00:17;;;;;;;8.53;5.87;;;;;;;9.64;53.23;93880.77;1793564;80;21039;-49
2021/01/22 05:02:45;;;;;;;9.35;5.87;;;;;;;9.66;53.33;93884.44;1793397;80;21051;-50
2021/01/22 05:05:14;;;;;;;30.05;16.00;;;;;;;9.65;53.41;93887.03;1793387;80;21389;-50
2021/01/22 05:07:43;;;;;;;16.42;10.53;;;;;;;9.64;53.44;93881.39;1793314;80;21118;-49
2021/01/22 05:10:13;;;;;;;19.20;15.18;;;;;;;9.63;53.37;93882.63;1793312;80;21118;-49
2021/01/22 05:12:42;;;;;;;20.40;16.55;;;;;;;9.61;53.48;93883.70;1793334;80;21118;-50
2021/01/22 05:15:24;;;;;;;18.65;15.30;;;;;;;9.59;53.57;93880.66;1820885;78;21146;-50
2021/01/22 05:18:00;;;;;;;12.15;8.23;;;;;;;9.57;53.58;93879.73;1826509;78;21329;-50
2021/01/22 05:20:37;;;;;;;20.90;17.73;;;;;;;9.56;53.61;93874.69;1826402;78;21075;-49
2021/01/22 05:23:08;;;;;;;9.08;4.55;;;;;;;9.54;53.69;93866.93;1825561;78;21487;-50
2021/01/22 05:25:58;;;;;;;8.35;5.87;;;;;;;9.53;53.64;93883.84;1826458;78;21047;-49
2021/01/22 05:28:42;;;;;;;25.40;18.85;;;;;;;9.52;53.70;93886.45;1826498;78;21051;-50
2021/01/22 05:31:14;;;;;;;22.80;16.17;;;;;;;9.52;53.76;93881.73;1826233;78;21225;-49
2021/01/22 05:33:56;;;;;;;9.98;6.83;;;;;;;9.58;53.60;93887.37;1826245;78;21126;-49
2021/01/22 05:36:32;;;;;;;21.02;13.58;;;;;;;9.62;53.64;93872.86;1826440;78;21146;-48
2021/01/22 05:39:03;;;;;;;51.50;33.10;;;;;;;9.64;53.46;93878.65;1826521;78;21589;-49
2021/01/22 05:41:32;;;;;;;11.15;9.05;;;;;;;9.65;53.36;93877.42;1826422;78;21134;-49
2021/01/22 05:44:01;;;;;;;133.45;88.52;;;;;;;9.68;53.31;93871.78;1826405;78;21451;-50
2021/01/22 05:46:31;;;;;;;74.72;49.55;;;;;;;9.70;53.30;93878.94;1826331;78;21157;-49
2021/01/22 05:49:07;;;;;;;24.25;15.95;;;;;;;9.72;53.25;93872.97;1803704;78;21072;-50
2021/01/22 05:51:36;;;;;;;44.85;31.35;;;;;;;9.72;53.24;93882.58;1780864;80;21059;-50
2021/01/22 05:54:06;;;;;;;17.32;12.28;;;;;;;9.73;53.31;93885.47;1780780;80;21059;-50
2021/01/22 05:56:34;;;;;;;16.57;11.65;;;;;;;9.73;53.18;93882.73;1780939;80;22130;-50
2021/01/22 05:59:15;;;;;;;15.28;11.97;;;;;;;9.75;53.30;93883.02;1780870;80;21593;-49
2021/01/22 06:01:43;;;;;;;8.58;7.58;;;;;;;9.77;53.25;93887.47;1781070;79;21564;-49
2021/01/22 06:04:11;;;;;;;9.15;6.20;;;;;;;9.79;53.24;93887.77;1780961;79;21076;-50
2021/01/22 06:06:40;;;;;;;8.30;6.00;;;;;;;9.77;53.31;93892.97;1780998;80;21056;-49
2021/01/22 06:09:09;;;;;;;8.10;6.10;;;;;;;9.76;53.34;93877.71;1780975;80;21370;-52
2021/01/22 06:11:39;;;;;;;16.87;8.78;;;;;;;9.76;53.31;93876.34;1780943;80;21093;-48
2021/01/22 06:14:08;;;;;;;12.35;7.22;;;;;;;9.75;53.39;93889.89;1784836;78;21071;-49
2021/01/22 06:16:36;;;;;;;9.58;6.50;;;;;;;9.72;53.32;93884.73;1798047;79;21063;-50
2021/01/22 06:19:07;;;;;;;13.43;7.67;;;;;;;9.71;53.43;93883.80;1797982;79;21059;-50
2021/01/22 06:21:40;;;;;;;8.78;7.42;;;;;;;9.71;53.42;93887.33;1813876;77;21208;-49
2021/01/22 06:24:09;;;;;;;16.55;8.93;;;;;;;9.73;53.47;93884.10;1805583;77;21099;-49
2021/01/22 06:26:39;;;;;;;10.78;6.28;;;;;;;9.75;53.41;93880.28;1846799;77;21480;-50
2021/01/22 06:29:09;;;;;;;17.67;12.98;;;;;;;9.75;53.33;93881.05;1846011;77;21670;-50
2021/01/22 06:31:38;;;;;;;7.72;6.65;;;;;;;9.76;53.38;93891.44;1846818;77;21043;-51
2021/01/22 06:34:07;;;;;;;6.92;4.95;;;;;;;9.78;53.17;93882.88;1846230;77;21349;-52
2021/01/22 06:36:37;;;;;;;6.70;5.42;;;;;;;9.78;53.16;93869.77;1846714;77;21520;-51
2021/01/22 06:39:06;;;;;;;8.28;5.83;;;;;;;9.80;53.12;93872.81;1846782;77;21035;-49
2021/01/22 06:41:35;;;;;;;9.13;6.70;;;;;;;9.83;53.16;93878.12;1846747;77;21075;-51
2021/01/22 06:44:04;;;;;;;10.45;7.80;;;;;;;9.85;53.11;93877.66;1836745;77;21083;-50
2021/01/22 06:46:33;;;;;;;13.90;10.00;;;;;;;9.87;53.13;93884.83;1843741;77;21440;-50
2021/01/22 06:49:03;;;;;;;15.60;12.18;;;;;;;9.85;53.17;93880.41;1830130;77;21135;-52
2021/01/22 06:51:34;;;;;;;15.48;11.70;;;;;;;9.80;53.47;93890.66;1832202;78;21126;-50
2021/01/22 06:54:21;;;;;;;16.32;10.75;;;;;;;9.67;53.92;93883.21;1832001;78;21483;-50
2021/01/22 06:56:58;;;;;;;13.72;8.55;;;;;;;9.61;54.00;93876.83;1832132;78;21148;-50
2021/01/22 06:59:30;;;;;;;15.78;10.15;;;;;;;9.56;54.18;93877.43;1832434;78;21365;-49
2021/01/22 07:01:58;;;;;;;18.62;13.15;;;;;;;9.53;54.18;93879.13;1832835;78;21503;-50
2021/01/22 07:04:37;;;;;;;30.05;17.75;;;;;;;9.51;54.34;93882.17;1821666;77;21284;-50
2021/01/22 07:07:08;;;;;;;22.42;14.07;;;;;;;9.48;54.46;93876.24;1821490;77;21500;-52
2021/01/22 07:09:49;;;;;;;18.07;13.13;;;;;;;9.48;54.57;93878.39;1830734;77;21154;-50
2021/01/22 07:12:39;;;;;;;19.85;13.32;;;;;;;9.46;54.50;93866.34;1819177;77;21328;-50
2021/01/22 07:15:25;;;;;;;25.30;15.72;;;;;;;9.46;54.53;93867.70;1812956;77;21170;-51
2021/01/22 07:18:00;;;;;;;18.90;11.43;;;;;;;9.41;54.64;93866.97;1818378;78;21060;-50
2021/01/22 07:20:30;;;;;;;14.73;8.75;;;;;;;9.42;54.58;93870.60;1822125;78;21210;-54
2021/01/22 07:23:01;;;;;;;17.02;10.60;;;;;;;9.48;54.50;93870.75;1827614;77;21134;-52
2021/01/22 07:25:44;;;;;;;22.65;14.30;;;;;;;9.53;54.58;93872.27;1829182;77;22251;-51
2021/01/22 07:28:20;;;;;;;22.15;15.40;;;;;;;9.52;54.73;93873.49;1825261;77;21115;-49
2021/01/22 07:30:48;;;;;;;22.17;13.72;;;;;;;9.47;54.88;93867.86;1827841;77;21119;-50
2021/01/22 07:33:32;;;;;;;28.85;15.98;;;;;;;9.42;55.07;93874.72;1822488;77;21185;-51
2021/01/22 07:36:11;;;;;;;25.57;14.53;;;;;;;9.43;55.16;93874.88;1827295;77;21194;-52
2021/01/22 07:38:40;;;;;;;25.40;14.87;;;;;;;9.45;55.37;93873.80;1842196;77;21922;-50
2021/01/22 07:41:10;;;;;;;19.50;12.47;;;;;;;9.41;55.47;93875.20;1831392;77;21099;-50
2021/01/22 07:43:40;;;;;;;23.67;14.20;;;;;;;9.40;55.47;93879.16;1822430;77;21167;-52
2021/01/22 07:46:11;;;;;;;21.33;14.20;;;;;;;9.41;55.50;93880.06;1817670;77;21201;-51
2021/01/22 07:48:41;;;;;;;26.33;14.80;;;;;;;9.45;55.64;93875.80;1832362;77;21170;-54
2021/01/22 07:51:36;;;;;;;27.65;17.80;;;;;;;9.49;55.63;93877.16;1829147;77;21214;-51
2021/01/22 07:54:05;;;;;;;34.83;21.25;;;;;;;9.51;55.73;93874.72;1817002;77;21198;-51
2021/01/22 07:56:38;;;;;;;20.97;13.25;;;;;;;9.56;55.91;93871.94;1836307;77;21207;-51
2021/01/22 07:59:10;;;;;;;24.02;14.47;;;;;;;9.61;55.94;93867.97;1835782;77;21111;-51
2021/01/22 08:01:40;;;;;;;41.68;22.70;;;;;;;9.66;55.96;93874.83;1827641;77;21063;-51
2021/01/22 08:04:10;;;;;;;41.73;21.68;;;;;;;9.67;55.92;93866.14;1827912;77;21379;-52
2021/01/22 08:06:49;;;;;;;42.95;21.42;;;;;;;9.72;55.86;93864.73;1836561;77;21103;-50
2021/01/22 08:09:18;;;;;;;38.33;19.40;;;;;;;9.79;55.79;93867.91;1822841;77;21159;-51
2021/01/22 08:14:30;;;;;;;32.33;16.93;;;;;;;9.98;55.37;93860.38;1854578;76;22725;-50
2021/01/22 08:16:59;;;;;;;30.17;15.13;;;;;;;10.02;55.21;93866.49;1815275;76;21185;-51
2021/01/22 08:19:27;;;;;;;20.82;12.33;;;;;;;10.10;55.09;93873.16;1829662;78;21308;-50
2021/01/22 08:21:57;;;;;;;23.10;13.88;;;;;;;10.16;54.94;93864.45;1831418;77;21145;-51
2021/01/22 08:24:26;;;;;;;16.40;9.88;;;;;;;10.18;54.77;93859.99;1828468;76;21094;-53
2021/01/22 08:27:00;;;;;;;15.75;11.10;;;;;;;10.20;54.79;93862.29;1813959;78;21049;-54
2021/01/22 08:29:34;;;;;;;14.28;9.30;;;;;;;10.24;54.78;93843.03;1822267;78;21184;-48
2021/01/22 08:32:03;;;;;;;13.80;8.00;;;;;;;10.28;54.26;93841.47;1807253;78;21263;-51
2021/01/22 08:34:33;;;;;;;7.58;5.37;;;;;;;10.29;53.87;93822.38;1829828;78;21220;-50
2021/01/22 08:37:01;;;;;;;10.75;6.87;;;;;;;10.26;53.37;93795.22;1809208;78;21190;-54
2021/01/22 08:39:58;;;;;;;15.50;7.78;;;;;;;10.24;53.43;93802.41;1819744;78;21140;-56
2021/01/22 08:42:27;;;;;;;8.68;5.50;;;;;;;10.22;53.42;93801.52;1823967;76;21152;-52
2021/01/22 08:44:58;;;;;;;6.47;4.45;;;;;;;10.26;53.16;93818.59;1818622;76;21199;-54
2021/01/22 08:47:28;;;;;;;8.10;5.33;;;;;;;10.32;52.72;93813.21;1816377;78;21184;-50
2021/01/22 08:50:01;;;;;;;7.00;4.75;;;;;;;10.40;52.88;93809.64;1765240;80;21187;-51
2021/01/22 08:52:30;;;;;;;6.75;5.30;;;;;;;10.53;52.20;93816.28;1757330;80;21650;-52
2021/01/22 08:54:59;;;;;;;5.05;4.45;;;;;;;10.65;52.31;93830.38;1770860;80;21155;-56
2021/01/22 08:57:30;;;;;;;4.55;3.90;;;;;;;10.77;51.73;93832.91;1774148;79;21362;-52
2021/01/22 08:59:59;;;;;;;4.92;4.33;;;;;;;10.90;51.29;93842.43;1771468;80;21195;-50
2021/01/22 09:02:40;;;;;;;5.28;3.83;;;;;;;11.02;51.21;93843.41;1762187;80;21199;-51
2021/01/22 09:05:16;;;;;;;5.53;4.65;;;;;;;11.16;50.82;93831.03;1764998;80;21642;-51
2021/01/22 09:07:44;;;;;;;6.55;4.70;;;;;;;11.36;50.68;93850.42;1767139;79;21059;-53
2021/01/22 09:10:28;;;;;;;8.30;5.22;;;;;;;11.59;49.77;93838.61;1754272;80;21206;-53
2021/01/22 09:13:14;;;;;;;5.55;4.28;;;;;;;11.86;49.38;93843.81;1772567;80;21242;-53
2021/01/22 09:15:42;;;;;;;4.87;4.00;;;;;;;12.17;48.76;93857.84;1775576;80;21577;-49
2021/01/22 09:18:24;;;;;;;6.00;4.10;;;;;;;12.43;48.42;93849.06;1777366;80;21250;-50
2021/01/22 09:21:05;;;;;;;4.75;3.15;;;;;;;12.65;48.11;93831.43;1764838;80;21204;-50
2021/01/22 09:23:33;;;;;;;4.15;3.55;;;;;;;12.86;47.54;93837.12;1768581;80;21261;-51
2021/01/22 09:26:04;;;;;;;5.62;3.00;;;;;;;12.95;47.42;93837.77;1761654;80;21156;-50
2021/01/22 09:28:32;;;;;;;3.67;3.10;;;;;;;12.94;47.50;93833.46;1775379;80;21153;-52
2021/01/22 09:31:01;;;;;;;4.62;3.33;;;;;;;13.03;47.45;93831.18;1780251;78;21173;-51
2021/01/22 09:33:31;;;;;;;3.17;2.87;;;;;;;13.19;47.01;93838.29;1783245;80;21193;-51
2021/01/22 09:36:00;;;;;;;4.28;3.12;;;;;;;13.33;46.98;93841.59;1771404;80;21191;-50
2021/01/22 09:38:29;;;;;;;5.85;3.00;;;;;;;13.39;46.54;93837.48;1758936;81;21220;-49
2021/01/22 09:40:58;;;;;;;5.55;2.80;;;;;;;13.25;46.70;93840.48;1758893;80;21157;-53
2021/01/22 09:43:26;;;;;;;4.42;3.55;;;;;;;13.07;46.76;93860.74;1765143;80;21158;-48
2021/01/22 09:45:57;;;;;;;5.62;3.77;;;;;;;12.90;47.33;93848.70;1778665;80;21054;-49
2021/01/22 09:48:25;;;;;;;7.97;7.17;;;;;;;12.75;47.78;93834.20;1780528;80;22255;-49
2021/01/22 09:50:53;;;;;;;9.75;7.62;;;;;;;12.58;48.04;93824.34;1770785;80;21149;-51
2021/01/22 09:53:22;;;;;;;7.22;4.22;;;;;;;12.41;48.21;93829.48;1783228;80;21130;-49
2021/01/22 09:55:52;;;;;;;7.70;3.33;;;;;;;12.26;48.74;93832.90;1777669;80;21094;-55
2021/01/22 09:58:20;;;;;;;5.97;4.03;;;;;;;12.13;48.96;93836.61;1781859;80;21206;-51
2021/01/22 10:00:48;;;;;;;3.83;3.35;;;;;;;11.96;49.41;93845.24;1771094;80;22108;-50
2021/01/22 10:03:17;;;;;;;8.58;4.25;;;;;;;11.80;49.59;93844.95;1769413;80;21165;-53
2021/01/22 10:05:46;;;;;;;6.37;4.87;;;;;;;11.62;50.17;93832.76;1745953;81;21424;-50
2021/01/22 10:08:19;;;;;;;7.22;4.83;;;;;;;11.48;50.53;93835.63;1752951;81;21554;-52
2021/01/22 10:10:46;;;;;;;5.63;4.40;;;;;;;11.41;50.72;93837.39;1752041;81;21062;-53
2021/01/22 10:13:15;;;;;;;7.35;5.67;;;;;;;11.33;50.87;93831.36;1745891;81;21417;-51
2021/01/22 10:15:45;;;;;;;6.60;5.90;;;;;;;11.27;51.30;93834.61;1750507;81;21065;-52
2021/01/22 10:18:13;;;;;;;8.25;4.95;;;;;;;11.22;51.37;93831.92;1742395;81;21170;-58
2021/01/22 10:20:42;;;;;;;6.33;4.60;;;;;;;11.24;51.18;93835.56;1748755;81;21542;-52
2021/01/22 10:23:12;;;;;;;19.20;5.40;;;;;;;11.26;50.96;93824.23;1748823;81;21187;-53
2021/01/22 10:25:42;;;;;;;7.40;5.20;;;;;;;11.28;50.99;93830.62;1751564;81;21166;-50
2021/01/22 10:28:10;;;;;;;8.25;6.35;;;;;;;11.26;51.02;93826.20;1746108;81;21222;-49
2021/01/22 10:30:39;;;;;;;4.60;4.05;;;;;;;11.22;51.25;93826.41;1749992;81;21205;-49
2021/01/22 10:33:08;;;;;;;9.33;4.92;;;;;;;11.19;50.96;93806.69;1748037;80;21273;-55
2021/01/22 10:35:37;;;;;;;10.15;6.00;;;;;;;11.15;51.22;93806.12;1744076;81;21103;-51
2021/01/22 10:38:06;;;;;;;8.70;6.60;;;;;;;11.18;51.06;93805.80;1752831;81;21530;-49
2021/01/22 10:40:35;;;;;;;8.83;5.42;;;;;;;11.20;51.14;93800.58;1745639;81;21103;-49
2021/01/22 10:43:03;;;;;;;27.98;8.10;;;;;;;11.22;51.05;93801.64;1749986;81;21718;-55
2021/01/22 10:45:32;;;;;;;11.28;6.72;;;;;;;11.24;50.86;93792.28;1745624;81;21498;-50
2021/01/22 10:48:01;;;;;;;5.40;4.60;;;;;;;11.26;50.67;93789.81;1748421;81;21193;-50
2021/01/22 10:50:31;;;;;;;16.17;5.25;;;;;;;11.29;50.42;93785.33;1767420;80;22265;-50
2021/01/22 10:52:59;;;;;;;4.95;3.90;;;;;;;11.30;50.29;93781.34;1776825;78;21475;-55
2021/01/22 10:55:29;;;;;;;4.72;4.10;;;;;;;11.32;50.06;93787.91;1781400;80;21114;-50
2021/01/22 10:57:58;;;;;;;10.25;4.37;;;;;;;11.34;49.97;93790.20;1765061;80;21159;-51
2021/01/22 11:00:26;;;;;;;8.35;4.92;;;;;;;11.33;49.99;93785.29;1744726;81;21190;-50
2021/01/22 11:02:57;;;;;;;24.10;11.57;;;;;;;11.35;50.04;93788.96;1769346;80;21352;-52
2021/01/22 11:05:27;;;;;;;15.18;9.75;;;;;;;11.38;50.00;93776.98;1772277;80;21326;-49
2021/01/22 11:07:55;;;;;;;12.47;4.60;;;;;;;11.35;50.01;93781.44;1776514;80;21153;-51
2021/01/22 11:10:24;;;;;;;9.45;5.30;;;;;;;11.31;49.92;93780.87;1768659;81;21151;-50
2021/01/22 11:12:53;;;;;;;4.20;3.45;;;;;;;11.27;50.04;93766.55;1765761;80;21471;-51
2021/01/22 11:15:21;;;;;;;7.30;5.67;;;;;;;11.29;49.85;93766.83;1746319;80;21249;-51
2021/01/22 11:17:50;;;;;;;7.05;5.17;;;;;;;11.31;50.08;93767.75;1752056;80;21130;-51
2021/01/22 11:20:18;;;;;;;7.50;5.05;;;;;;;11.31;49.96;93748.47;1760692;80;21130;-52
2021/01/22 11:22:47;;;;;;;9.95;4.45;;;;;;;11.31;50.06;93756.09;1777785;80;21444;-51
2021/01/22 11:25:17;;;;;;;5.78;4.40;;;;;;;11.27;50.06;93752.78;1752324;80;21130;-51
2021/01/22 11:27:45;;;;;;;19.05;6.65;;;;;;;11.25;50.23;93732.46;1757828;81;21389;-52
2021/01/22 11:30:15;;;;;;;14.35;5.62;;;;;;;11.21;50.57;93738.14;1755480;80;21131;-54
2021/01/22 11:32:43;;;;;;;7.60;4.80;;;;;;;11.18;50.57;93728.09;1779544;80;21185;-54
2021/01/22 11:35:13;;;;;;;10.10;4.60;;;;;;;11.18;50.59;93740.48;1783478;80;21640;-51
2021/01/22 11:37:47;;;;;;;10.38;6.37;;;;;;;11.15;50.28;93731.80;1783629;80;21129;-55
2021/01/22 11:40:16;;;;;;;15.30;5.30;;;;;;;11.10;50.38;93740.73;1780790;80;21203;-53
2021/01/22 11:42:47;;;;;;;11.28;5.78;;;;;;;11.05;50.47;93733.14;1780527;80;21580;-54
2021/01/22 11:45:17;;;;;;;7.30;4.83;;;;;;;11.03;50.60;93730.11;1774376;79;21116;-52
2021/01/22 11:47:45;;;;;;;9.05;4.40;;;;;;;11.04;50.68;93718.47;1756841;81;21193;-52
2021/01/22 11:50:14;;;;;;;13.58;6.87;;;;;;;11.04;50.67;93716.48;1751434;79;21598;-53
2021/01/22 11:52:44;;;;;;;8.95;4.45;;;;;;;11.00;50.87;93711.02;1749522;81;21201;-50
2021/01/22 11:55:13;;;;;;;7.70;5.03;;;;;;;10.96;50.82;93715.96;1749337;80;21222;-50